sensor_id;sensor_type;location;lat;lon;timestamp;P1;durP1;ratioP1;P2;durP2;ratioP2
38117;SDS011;23928;47.562;7.508;2023-07-31T00:00:46;2.60;;;1.33;;
38117;SDS011;23928;47.562;7.508;2023-07-31T00:03:12;3.23;;;1.87;;
38117;SDS011;23928;47.562;7.508;2023-07-31T00:05:37;4.20;;;1.67;;
38117;SDS011;23928;47.562;7.508;2023-07-31T00:08:03;1.60;;;1.50;;
38117;SDS011;23928;47.562;7.508;2023-07-31T00:10:28;3.27;;;1.83;;
38117;SDS011;23928;47.562;7.508;2023-07-31T00:12:54;4.20;;;1.60;;
38117;SDS011;23928;47.562;7.508;2023-07-31T00:15:20;2.53;;;1.33;;
38117;SDS011;23928;47.562;7.508;2023-07-31T00:17:45;2.67;;;1.33;;
38117;SDS011;23928;47.562;7.508;2023-07-31T00:20:11;4.30;;;1.63;;
38117;SDS011;23928;47.562;7.508;2023-07-31T00:22:37;3.77;;;1.57;;
38117;SDS011;23928;47.562;7.508;2023-07-31T00:25:03;2.50;;;1.70;;
38117;SDS011;23928;47.562;7.508;2023-07-31T00:27:29;3.40;;;1.70;;
38117;SDS011;23928;47.562;7.508;2023-07-31T00:29:54;1.70;;;1.57;;
38117;SDS011;23928;47.562;7.508;2023-07-31T00:32:20;4.30;;;1.77;;
38117;SDS011;23928;47.562;7.508;2023-07-31T00:34:45;3.33;;;1.80;;
38117;SDS011;23928;47.562;7.508;2023-07-31T00:37:11;1.63;;;1.47;;
38117;SDS011;23928;47.562;7.508;2023-07-31T00:39:37;3.13;;;1.57;;
38117;SDS011;23928;47.562;7.508;2023-07-31T00:42:02;4.53;;;1.73;;
38117;SDS011;23928;47.562;7.508;2023-07-31T00:44:28;1.97;;;1.57;;
38117;SDS011;23928;47.562;7.508;2023-07-31T00:46:54;6.53;;;1.67;;
38117;SDS011;23928;47.562;7.508;2023-07-31T00:49:21;3.07;;;1.43;;
38117;SDS011;23928;47.562;7.508;2023-07-31T00:51:47;4.70;;;1.57;;
38117;SDS011;23928;47.562;7.508;2023-07-31T00:54:13;2.20;;;1.80;;
38117;SDS011;23928;47.562;7.508;2023-07-31T00:56:39;4.60;;;2.00;;
38117;SDS011;23928;47.562;7.508;2023-07-31T00:59:06;1.60;;;1.50;;
38117;SDS011;23928;47.562;7.508;2023-07-31T01:01:31;2.03;;;1.53;;
38117;SDS011;23928;47.562;7.508;2023-07-31T01:03:57;3.27;;;1.60;;
38117;SDS011;23928;47.562;7.508;2023-07-31T01:06:40;2.70;;;1.93;;
38117;SDS011;23928;47.562;7.508;2023-07-31T01:12:02;2.93;;;1.70;;
38117;SDS011;23928;47.562;7.508;2023-07-31T01:14:29;1.97;;;1.40;;
38117;SDS011;23928;47.562;7.508;2023-07-31T01:16:55;2.83;;;1.73;;
38117;SDS011;23928;47.562;7.508;2023-07-31T01:19:24;2.33;;;1.93;;
38117;SDS011;23928;47.562;7.508;2023-07-31T01:28:01;2.23;;;1.73;;
38117;SDS011;23928;47.562;7.508;2023-07-31T01:30:32;4.83;;;1.70;;
38117;SDS011;23928;47.562;7.508;2023-07-31T01:33:00;3.83;;;1.80;;
38117;SDS011;23928;47.562;7.508;2023-07-31T01:35:31;2.20;;;1.80;;
38117;SDS011;23928;47.562;7.508;2023-07-31T01:37:58;3.73;;;1.53;;
38117;SDS011;23928;47.562;7.508;2023-07-31T01:40:24;2.50;;;1.60;;
38117;SDS011;23928;47.562;7.508;2023-07-31T01:42:49;2.30;;;1.77;;
38117;SDS011;23928;47.562;7.508;2023-07-31T01:45:15;2.87;;;1.60;;
38117;SDS011;23928;47.562;7.508;2023-07-31T01:47:41;4.07;;;1.80;;
38117;SDS011;23928;47.562;7.508;2023-07-31T01:50:06;3.90;;;1.80;;
38117;SDS011;23928;47.562;7.508;2023-07-31T01:52:32;2.33;;;1.83;;
38117;SDS011;23928;47.562;7.508;2023-07-31T01:54:58;3.43;;;1.57;;
38117;SDS011;23928;47.562;7.508;2023-07-31T01:57:23;2.50;;;1.70;;
38117;SDS011;23928;47.562;7.508;2023-07-31T01:59:49;1.83;;;1.50;;
38117;SDS011;23928;47.562;7.508;2023-07-31T02:02:15;4.17;;;2.17;;
38117;SDS011;23928;47.562;7.508;2023-07-31T02:04:41;2.67;;;1.60;;
38117;SDS011;23928;47.562;7.508;2023-07-31T02:07:06;3.23;;;1.63;;
38117;SDS011;23928;47.562;7.508;2023-07-31T02:09:32;3.10;;;1.70;;
38117;SDS011;23928;47.562;7.508;2023-07-31T02:11:57;4.40;;;2.00;;
38117;SDS011;23928;47.562;7.508;2023-07-31T02:14:23;3.93;;;1.70;;
38117;SDS011;23928;47.562;7.508;2023-07-31T02:16:49;1.77;;;1.50;;
38117;SDS011;23928;47.562;7.508;2023-07-31T02:19:15;2.50;;;1.60;;
38117;SDS011;23928;47.562;7.508;2023-07-31T02:21:40;2.40;;;1.87;;
38117;SDS011;23928;47.562;7.508;2023-07-31T02:24:06;3.77;;;2.17;;
38117;SDS011;23928;47.562;7.508;2023-07-31T02:26:32;1.70;;;1.60;;
38117;SDS011;23928;47.562;7.508;2023-07-31T02:28:58;2.53;;;1.63;;
38117;SDS011;23928;47.562;7.508;2023-07-31T02:31:23;3.23;;;1.50;;
38117;SDS011;23928;47.562;7.508;2023-07-31T02:33:49;3.80;;;1.93;;
38117;SDS011;23928;47.562;7.508;2023-07-31T02:36:14;2.83;;;1.80;;
38117;SDS011;23928;47.562;7.508;2023-07-31T02:38:40;2.43;;;1.57;;
38117;SDS011;23928;47.562;7.508;2023-07-31T02:41:06;1.87;;;1.50;;
38117;SDS011;23928;47.562;7.508;2023-07-31T02:43:31;2.03;;;1.37;;
38117;SDS011;23928;47.562;7.508;2023-07-31T02:45:57;3.53;;;1.77;;
38117;SDS011;23928;47.562;7.508;2023-07-31T02:48:22;2.17;;;1.90;;
38117;SDS011;23928;47.562;7.508;2023-07-31T02:50:48;4.10;;;1.93;;
38117;SDS011;23928;47.562;7.508;2023-07-31T02:53:14;4.63;;;2.03;;
38117;SDS011;23928;47.562;7.508;2023-07-31T02:55:40;3.23;;;2.00;;
38117;SDS011;23928;47.562;7.508;2023-07-31T02:58:06;5.40;;;1.87;;
38117;SDS011;23928;47.562;7.508;2023-07-31T03:00:32;4.03;;;1.53;;
38117;SDS011;23928;47.562;7.508;2023-07-31T03:02:57;2.90;;;1.73;;
38117;SDS011;23928;47.562;7.508;2023-07-31T03:05:23;2.13;;;1.60;;
38117;SDS011;23928;47.562;7.508;2023-07-31T03:07:48;3.33;;;1.67;;
38117;SDS011;23928;47.562;7.508;2023-07-31T03:10:14;2.93;;;1.77;;
38117;SDS011;23928;47.562;7.508;2023-07-31T03:12:40;2.23;;;1.73;;
38117;SDS011;23928;47.562;7.508;2023-07-31T03:15:05;2.77;;;1.53;;
38117;SDS011;23928;47.562;7.508;2023-07-31T03:17:31;3.07;;;1.50;;
38117;SDS011;23928;47.562;7.508;2023-07-31T03:19:57;2.27;;;1.43;;
38117;SDS011;23928;47.562;7.508;2023-07-31T03:22:23;2.00;;;1.50;;
38117;SDS011;23928;47.562;7.508;2023-07-31T03:24:48;3.00;;;1.60;;
38117;SDS011;23928;47.562;7.508;2023-07-31T03:27:14;3.23;;;1.70;;
38117;SDS011;23928;47.562;7.508;2023-07-31T03:29:39;2.83;;;2.00;;
38117;SDS011;23928;47.562;7.508;2023-07-31T03:32:05;2.47;;;1.50;;
38117;SDS011;23928;47.562;7.508;2023-07-31T03:34:31;3.33;;;1.80;;
38117;SDS011;23928;47.562;7.508;2023-07-31T03:36:57;2.60;;;1.50;;
38117;SDS011;23928;47.562;7.508;2023-07-31T03:39:23;3.37;;;1.70;;
38117;SDS011;23928;47.562;7.508;2023-07-31T03:41:48;2.60;;;2.10;;
38117;SDS011;23928;47.562;7.508;2023-07-31T03:44:14;2.03;;;1.80;;
38117;SDS011;23928;47.562;7.508;2023-07-31T03:46:39;1.87;;;1.40;;
38117;SDS011;23928;47.562;7.508;2023-07-31T03:49:05;3.17;;;1.67;;
38117;SDS011;23928;47.562;7.508;2023-07-31T03:51:31;3.27;;;1.50;;
38117;SDS011;23928;47.562;7.508;2023-07-31T03:53:56;4.30;;;2.23;;
38117;SDS011;23928;47.562;7.508;2023-07-31T03:56:22;1.80;;;1.70;;
38117;SDS011;23928;47.562;7.508;2023-07-31T03:58:47;2.47;;;1.50;;
38117;SDS011;23928;47.562;7.508;2023-07-31T04:01:13;2.97;;;2.17;;
38117;SDS011;23928;47.562;7.508;2023-07-31T04:03:39;4.13;;;1.90;;
38117;SDS011;23928;47.562;7.508;2023-07-31T04:06:04;3.67;;;1.73;;
38117;SDS011;23928;47.562;7.508;2023-07-31T04:08:32;4.30;;;1.70;;
38117;SDS011;23928;47.562;7.508;2023-07-31T04:10:57;2.67;;;1.67;;
38117;SDS011;23928;47.562;7.508;2023-07-31T04:13:23;2.97;;;1.80;;
38117;SDS011;23928;47.562;7.508;2023-07-31T04:15:49;2.77;;;1.63;;
38117;SDS011;23928;47.562;7.508;2023-07-31T04:18:17;3.43;;;1.80;;
38117;SDS011;23928;47.562;7.508;2023-07-31T04:20:43;2.70;;;1.73;;
38117;SDS011;23928;47.562;7.508;2023-07-31T04:23:09;2.60;;;2.00;;
38117;SDS011;23928;47.562;7.508;2023-07-31T04:25:34;3.93;;;1.63;;
38117;SDS011;23928;47.562;7.508;2023-07-31T04:28:00;3.30;;;1.77;;
38117;SDS011;23928;47.562;7.508;2023-07-31T04:30:26;5.60;;;1.57;;
38117;SDS011;23928;47.562;7.508;2023-07-31T04:32:51;2.10;;;1.90;;
38117;SDS011;23928;47.562;7.508;2023-07-31T04:35:17;2.97;;;1.80;;
38117;SDS011;23928;47.562;7.508;2023-07-31T04:37:43;3.57;;;2.00;;
38117;SDS011;23928;47.562;7.508;2023-07-31T04:40:09;2.60;;;2.00;;
38117;SDS011;23928;47.562;7.508;2023-07-31T04:42:35;3.10;;;1.70;;
38117;SDS011;23928;47.562;7.508;2023-07-31T04:45:01;3.33;;;2.10;;
38117;SDS011;23928;47.562;7.508;2023-07-31T04:47:26;3.37;;;1.83;;
38117;SDS011;23928;47.562;7.508;2023-07-31T04:49:52;4.07;;;1.90;;
38117;SDS011;23928;47.562;7.508;2023-07-31T04:52:18;5.10;;;1.80;;
38117;SDS011;23928;47.562;7.508;2023-07-31T04:54:43;3.30;;;2.00;;
38117;SDS011;23928;47.562;7.508;2023-07-31T04:57:09;4.30;;;1.50;;
38117;SDS011;23928;47.562;7.508;2023-07-31T04:59:34;2.53;;;1.87;;
38117;SDS011;23928;47.562;7.508;2023-07-31T05:02:00;2.30;;;1.80;;
38117;SDS011;23928;47.562;7.508;2023-07-31T05:04:25;4.23;;;1.97;;
38117;SDS011;23928;47.562;7.508;2023-07-31T05:06:51;2.80;;;1.50;;
38117;SDS011;23928;47.562;7.508;2023-07-31T05:09:16;2.33;;;1.90;;
38117;SDS011;23928;47.562;7.508;2023-07-31T05:11:43;4.03;;;1.97;;
38117;SDS011;23928;47.562;7.508;2023-07-31T05:14:09;2.13;;;1.60;;
38117;SDS011;23928;47.562;7.508;2023-07-31T05:16:34;2.17;;;1.63;;
38117;SDS011;23928;47.562;7.508;2023-07-31T05:19:00;2.40;;;1.77;;
38117;SDS011;23928;47.562;7.508;2023-07-31T05:21:25;2.03;;;1.60;;
38117;SDS011;23928;47.562;7.508;2023-07-31T05:23:51;3.30;;;1.83;;
38117;SDS011;23928;47.562;7.508;2023-07-31T05:26:17;4.73;;;1.97;;
38117;SDS011;23928;47.562;7.508;2023-07-31T05:28:42;1.90;;;1.80;;
38117;SDS011;23928;47.562;7.508;2023-07-31T05:31:08;2.47;;;1.60;;
38117;SDS011;23928;47.562;7.508;2023-07-31T05:33:33;2.93;;;1.87;;
38117;SDS011;23928;47.562;7.508;2023-07-31T05:35:59;3.20;;;1.87;;
38117;SDS011;23928;47.562;7.508;2023-07-31T05:38:25;3.00;;;2.00;;
38117;SDS011;23928;47.562;7.508;2023-07-31T05:40:50;3.97;;;2.00;;
38117;SDS011;23928;47.562;7.508;2023-07-31T05:43:16;3.53;;;1.83;;
38117;SDS011;23928;47.562;7.508;2023-07-31T05:45:42;3.40;;;1.80;;
38117;SDS011;23928;47.562;7.508;2023-07-31T05:48:08;2.37;;;1.60;;
38117;SDS011;23928;47.562;7.508;2023-07-31T05:50:33;3.63;;;1.87;;
38117;SDS011;23928;47.562;7.508;2023-07-31T05:52:59;2.97;;;1.93;;
38117;SDS011;23928;47.562;7.508;2023-07-31T05:55:25;2.40;;;1.87;;
38117;SDS011;23928;47.562;7.508;2023-07-31T05:57:54;3.93;;;2.17;;
38117;SDS011;23928;47.562;7.508;2023-07-31T06:00:19;3.77;;;1.83;;
38117;SDS011;23928;47.562;7.508;2023-07-31T06:02:46;3.07;;;1.83;;
38117;SDS011;23928;47.562;7.508;2023-07-31T06:05:12;4.83;;;2.03;;
38117;SDS011;23928;47.562;7.508;2023-07-31T06:07:38;3.07;;;1.77;;
38117;SDS011;23928;47.562;7.508;2023-07-31T06:10:04;2.93;;;1.93;;
38117;SDS011;23928;47.562;7.508;2023-07-31T06:12:34;4.77;;;2.10;;
38117;SDS011;23928;47.562;7.508;2023-07-31T06:15:00;4.20;;;1.87;;
38117;SDS011;23928;47.562;7.508;2023-07-31T06:17:26;3.07;;;1.80;;
38117;SDS011;23928;47.562;7.508;2023-07-31T06:19:52;4.37;;;1.93;;
38117;SDS011;23928;47.562;7.508;2023-07-31T06:22:18;2.90;;;2.10;;
38117;SDS011;23928;47.562;7.508;2023-07-31T06:24:44;4.93;;;2.07;;
38117;SDS011;23928;47.562;7.508;2023-07-31T06:27:10;3.00;;;2.00;;
38117;SDS011;23928;47.562;7.508;2023-07-31T06:29:35;2.83;;;1.70;;
38117;SDS011;23928;47.562;7.508;2023-07-31T06:32:02;2.30;;;1.90;;
38117;SDS011;23928;47.562;7.508;2023-07-31T06:34:27;3.77;;;2.17;;
38117;SDS011;23928;47.562;7.508;2023-07-31T06:36:53;3.73;;;1.80;;
38117;SDS011;23928;47.562;7.508;2023-07-31T06:39:18;2.47;;;1.60;;
38117;SDS011;23928;47.562;7.508;2023-07-31T06:41:44;4.17;;;2.20;;
38117;SDS011;23928;47.562;7.508;2023-07-31T06:44:10;4.30;;;2.20;;
38117;SDS011;23928;47.562;7.508;2023-07-31T06:46:36;4.30;;;2.40;;
38117;SDS011;23928;47.562;7.508;2023-07-31T06:49:02;8.03;;;2.10;;
38117;SDS011;23928;47.562;7.508;2023-07-31T06:51:27;4.27;;;2.20;;
38117;SDS011;23928;47.562;7.508;2023-07-31T06:53:53;2.70;;;1.90;;
38117;SDS011;23928;47.562;7.508;2023-07-31T06:56:18;3.67;;;2.00;;
38117;SDS011;23928;47.562;7.508;2023-07-31T06:58:45;4.63;;;1.90;;
38117;SDS011;23928;47.562;7.508;2023-07-31T07:01:11;4.90;;;1.83;;
38117;SDS011;23928;47.562;7.508;2023-07-31T07:03:36;4.30;;;1.90;;
38117;SDS011;23928;47.562;7.508;2023-07-31T07:06:02;8.00;;;2.03;;
38117;SDS011;23928;47.562;7.508;2023-07-31T07:08:28;2.57;;;1.43;;
38117;SDS011;23928;47.562;7.508;2023-07-31T07:10:53;4.13;;;1.80;;
38117;SDS011;23928;47.562;7.508;2023-07-31T07:13:19;2.57;;;1.93;;
38117;SDS011;23928;47.562;7.508;2023-07-31T07:15:50;2.13;;;1.90;;
38117;SDS011;23928;47.562;7.508;2023-07-31T07:18:16;3.47;;;1.80;;
38117;SDS011;23928;47.562;7.508;2023-07-31T07:20:52;4.60;;;2.10;;
38117;SDS011;23928;47.562;7.508;2023-07-31T07:23:19;3.40;;;1.60;;
38117;SDS011;23928;47.562;7.508;2023-07-31T07:25:46;6.60;;;1.80;;
38117;SDS011;23928;47.562;7.508;2023-07-31T07:28:12;3.67;;;1.70;;
38117;SDS011;23928;47.562;7.508;2023-07-31T07:30:38;4.70;;;1.87;;
38117;SDS011;23928;47.562;7.508;2023-07-31T07:33:04;7.40;;;2.00;;
38117;SDS011;23928;47.562;7.508;2023-07-31T07:35:30;3.37;;;1.57;;
38117;SDS011;23928;47.562;7.508;2023-07-31T07:37:58;3.53;;;1.90;;
38117;SDS011;23928;47.562;7.508;2023-07-31T07:40:23;4.23;;;1.80;;
38117;SDS011;23928;47.562;7.508;2023-07-31T07:42:49;3.33;;;1.67;;
38117;SDS011;23928;47.562;7.508;2023-07-31T07:45:15;5.07;;;2.20;;
38117;SDS011;23928;47.562;7.508;2023-07-31T07:47:41;4.07;;;1.80;;
38117;SDS011;23928;47.562;7.508;2023-07-31T07:50:07;4.23;;;2.13;;
38117;SDS011;23928;47.562;7.508;2023-07-31T07:52:33;4.77;;;1.57;;
38117;SDS011;23928;47.562;7.508;2023-07-31T07:54:58;3.03;;;1.60;;
38117;SDS011;23928;47.562;7.508;2023-07-31T07:57:25;3.03;;;1.60;;
38117;SDS011;23928;47.562;7.508;2023-07-31T07:59:51;2.90;;;1.73;;
38117;SDS011;23928;47.562;7.508;2023-07-31T08:02:17;2.60;;;1.67;;
38117;SDS011;23928;47.562;7.508;2023-07-31T08:04:42;4.00;;;1.80;;
38117;SDS011;23928;47.562;7.508;2023-07-31T08:07:10;2.77;;;1.80;;
38117;SDS011;23928;47.562;7.508;2023-07-31T08:09:37;3.27;;;1.60;;
38117;SDS011;23928;47.562;7.508;2023-07-31T08:12:03;3.53;;;1.67;;
38117;SDS011;23928;47.562;7.508;2023-07-31T08:14:29;4.90;;;1.80;;
38117;SDS011;23928;47.562;7.508;2023-07-31T08:16:55;3.90;;;1.70;;
38117;SDS011;23928;47.562;7.508;2023-07-31T08:19:21;2.20;;;1.70;;
38117;SDS011;23928;47.562;7.508;2023-07-31T08:21:46;3.80;;;1.53;;
38117;SDS011;23928;47.562;7.508;2023-07-31T08:24:12;4.70;;;1.70;;
38117;SDS011;23928;47.562;7.508;2023-07-31T08:26:38;2.80;;;1.60;;
38117;SDS011;23928;47.562;7.508;2023-07-31T08:29:03;3.83;;;1.57;;
38117;SDS011;23928;47.562;7.508;2023-07-31T08:31:29;4.03;;;1.67;;
38117;SDS011;23928;47.562;7.508;2023-07-31T08:33:55;3.13;;;1.67;;
38117;SDS011;23928;47.562;7.508;2023-07-31T08:36:21;3.57;;;1.93;;
38117;SDS011;23928;47.562;7.508;2023-07-31T08:38:47;3.90;;;1.73;;
38117;SDS011;23928;47.562;7.508;2023-07-31T08:41:12;5.40;;;1.80;;
38117;SDS011;23928;47.562;7.508;2023-07-31T08:43:38;3.80;;;1.70;;
38117;SDS011;23928;47.562;7.508;2023-07-31T08:46:04;2.23;;;1.50;;
38117;SDS011;23928;47.562;7.508;2023-07-31T08:48:30;4.03;;;1.90;;
38117;SDS011;23928;47.562;7.508;2023-07-31T08:50:57;2.67;;;1.70;;
38117;SDS011;23928;47.562;7.508;2023-07-31T08:53:23;3.20;;;1.77;;
38117;SDS011;23928;47.562;7.508;2023-07-31T08:55:49;3.77;;;1.80;;
38117;SDS011;23928;47.562;7.508;2023-07-31T08:58:15;3.33;;;2.07;;
38117;SDS011;23928;47.562;7.508;2023-07-31T09:00:42;5.27;;;1.87;;
38117;SDS011;23928;47.562;7.508;2023-07-31T09:03:13;4.13;;;1.87;;
38117;SDS011;23928;47.562;7.508;2023-07-31T09:05:43;2.90;;;1.80;;
38117;SDS011;23928;47.562;7.508;2023-07-31T09:08:11;3.63;;;2.07;;
38117;SDS011;23928;47.562;7.508;2023-07-31T09:10:41;11.33;;;2.20;;
38117;SDS011;23928;47.562;7.508;2023-07-31T09:13:07;2.30;;;1.63;;
38117;SDS011;23928;47.562;7.508;2023-07-31T09:15:34;2.93;;;1.77;;
38117;SDS011;23928;47.562;7.508;2023-07-31T09:18:01;2.83;;;2.00;;
38117;SDS011;23928;47.562;7.508;2023-07-31T09:20:27;5.00;;;1.80;;
38117;SDS011;23928;47.562;7.508;2023-07-31T09:22:53;3.10;;;1.60;;
38117;SDS011;23928;47.562;7.508;2023-07-31T09:25:26;3.33;;;1.70;;
38117;SDS011;23928;47.562;7.508;2023-07-31T09:28:05;3.53;;;1.90;;
38117;SDS011;23928;47.562;7.508;2023-07-31T09:30:43;6.33;;;2.27;;
38117;SDS011;23928;47.562;7.508;2023-07-31T09:33:13;4.87;;;2.40;;
38117;SDS011;23928;47.562;7.508;2023-07-31T09:35:39;3.87;;;1.83;;
38117;SDS011;23928;47.562;7.508;2023-07-31T09:38:14;7.10;;;2.10;;
38117;SDS011;23928;47.562;7.508;2023-07-31T09:40:41;2.53;;;1.60;;
38117;SDS011;23928;47.562;7.508;2023-07-31T09:43:08;8.40;;;2.30;;
38117;SDS011;23928;47.562;7.508;2023-07-31T09:45:39;5.97;;;1.87;;
38117;SDS011;23928;47.562;7.508;2023-07-31T09:48:07;2.47;;;1.60;;
38117;SDS011;23928;47.562;7.508;2023-07-31T09:50:34;4.67;;;1.70;;
38117;SDS011;23928;47.562;7.508;2023-07-31T09:53:08;5.50;;;2.10;;
38117;SDS011;23928;47.562;7.508;2023-07-31T09:55:34;4.03;;;2.27;;
38117;SDS011;23928;47.562;7.508;2023-07-31T09:58:03;3.13;;;1.90;;
38117;SDS011;23928;47.562;7.508;2023-07-31T10:00:33;2.80;;;2.00;;
38117;SDS011;23928;47.562;7.508;2023-07-31T10:03:00;3.37;;;2.00;;
38117;SDS011;23928;47.562;7.508;2023-07-31T10:05:38;3.37;;;2.10;;
38117;SDS011;23928;47.562;7.508;2023-07-31T10:08:08;5.67;;;2.40;;
38117;SDS011;23928;47.562;7.508;2023-07-31T10:10:36;3.93;;;2.00;;
38117;SDS011;23928;47.562;7.508;2023-07-31T10:13:02;3.60;;;1.73;;
38117;SDS011;23928;47.562;7.508;2023-07-31T10:15:29;5.07;;;2.10;;
38117;SDS011;23928;47.562;7.508;2023-07-31T10:17:56;5.37;;;2.10;;
38117;SDS011;23928;47.562;7.508;2023-07-31T10:20:23;5.03;;;2.10;;
38117;SDS011;23928;47.562;7.508;2023-07-31T10:22:49;5.57;;;2.20;;
38117;SDS011;23928;47.562;7.508;2023-07-31T10:25:16;3.27;;;1.97;;
38117;SDS011;23928;47.562;7.508;2023-07-31T10:27:43;4.57;;;1.90;;
38117;SDS011;23928;47.562;7.508;2023-07-31T10:30:10;6.17;;;2.07;;
38117;SDS011;23928;47.562;7.508;2023-07-31T10:32:39;2.80;;;1.80;;
38117;SDS011;23928;47.562;7.508;2023-07-31T10:35:07;3.10;;;2.10;;
38117;SDS011;23928;47.562;7.508;2023-07-31T10:37:37;2.60;;;2.00;;
38117;SDS011;23928;47.562;7.508;2023-07-31T10:42:32;3.70;;;1.90;;
38117;SDS011;23928;47.562;7.508;2023-07-31T10:45:00;5.30;;;1.60;;
38117;SDS011;23928;47.562;7.508;2023-07-31T10:47:30;3.63;;;1.93;;
38117;SDS011;23928;47.562;7.508;2023-07-31T10:50:12;2.77;;;1.80;;
38117;SDS011;23928;47.562;7.508;2023-07-31T10:52:38;3.93;;;1.90;;
38117;SDS011;23928;47.562;7.508;2023-07-31T10:55:16;2.97;;;1.90;;
38117;SDS011;23928;47.562;7.508;2023-07-31T10:57:50;3.77;;;1.70;;
38117;SDS011;23928;47.562;7.508;2023-07-31T11:02:56;4.07;;;1.90;;
38117;SDS011;23928;47.562;7.508;2023-07-31T11:08:41;4.60;;;2.10;;
38117;SDS011;23928;47.562;7.508;2023-07-31T11:11:08;3.57;;;1.90;;
38117;SDS011;23928;47.562;7.508;2023-07-31T11:13:49;3.23;;;1.80;;
38117;SDS011;23928;47.562;7.508;2023-07-31T11:16:18;4.97;;;2.30;;
38117;SDS011;23928;47.562;7.508;2023-07-31T11:18:45;3.87;;;1.70;;
38117;SDS011;23928;47.562;7.508;2023-07-31T11:21:16;3.30;;;1.80;;
38117;SDS011;23928;47.562;7.508;2023-07-31T11:23:49;3.03;;;1.90;;
38117;SDS011;23928;47.562;7.508;2023-07-31T11:26:18;3.63;;;1.87;;
38117;SDS011;23928;47.562;7.508;2023-07-31T11:28:47;4.10;;;1.70;;
38117;SDS011;23928;47.562;7.508;2023-07-31T11:31:14;3.00;;;1.53;;
38117;SDS011;23928;47.562;7.508;2023-07-31T11:33:40;2.43;;;1.63;;
38117;SDS011;23928;47.562;7.508;2023-07-31T11:36:06;4.60;;;2.60;;
38117;SDS011;23928;47.562;7.508;2023-07-31T11:38:39;3.97;;;1.90;;
38117;SDS011;23928;47.562;7.508;2023-07-31T11:41:04;3.23;;;2.00;;
38117;SDS011;23928;47.562;7.508;2023-07-31T11:43:33;3.70;;;1.77;;
38117;SDS011;23928;47.562;7.508;2023-07-31T11:45:59;2.00;;;1.80;;
38117;SDS011;23928;47.562;7.508;2023-07-31T11:48:31;3.23;;;1.83;;
38117;SDS011;23928;47.562;7.508;2023-07-31T11:51:00;4.70;;;2.20;;
38117;SDS011;23928;47.562;7.508;2023-07-31T11:53:29;2.63;;;1.87;;
38117;SDS011;23928;47.562;7.508;2023-07-31T11:56:01;3.10;;;1.70;;
38117;SDS011;23928;47.562;7.508;2023-07-31T11:58:30;4.67;;;2.00;;
38117;SDS011;23928;47.562;7.508;2023-07-31T12:00:56;4.30;;;1.90;;
38117;SDS011;23928;47.562;7.508;2023-07-31T12:03:23;3.37;;;2.10;;
38117;SDS011;23928;47.562;7.508;2023-07-31T12:05:50;4.93;;;2.10;;
38117;SDS011;23928;47.562;7.508;2023-07-31T12:08:15;3.83;;;2.10;;
38117;SDS011;23928;47.562;7.508;2023-07-31T12:10:41;4.90;;;1.90;;
38117;SDS011;23928;47.562;7.508;2023-07-31T12:13:08;3.53;;;1.90;;
38117;SDS011;23928;47.562;7.508;2023-07-31T12:15:45;4.03;;;1.97;;
38117;SDS011;23928;47.562;7.508;2023-07-31T12:18:15;2.87;;;2.03;;
38117;SDS011;23928;47.562;7.508;2023-07-31T12:20:46;3.53;;;2.17;;
38117;SDS011;23928;47.562;7.508;2023-07-31T12:23:22;5.37;;;2.30;;
38117;SDS011;23928;47.562;7.508;2023-07-31T12:26:12;4.53;;;2.00;;
38117;SDS011;23928;47.562;7.508;2023-07-31T12:28:46;4.50;;;2.50;;
38117;SDS011;23928;47.562;7.508;2023-07-31T12:31:14;4.67;;;2.37;;
38117;SDS011;23928;47.562;7.508;2023-07-31T12:33:42;5.43;;;2.20;;
38117;SDS011;23928;47.562;7.508;2023-07-31T12:36:18;4.13;;;2.30;;
38117;SDS011;23928;47.562;7.508;2023-07-31T12:38:46;4.10;;;2.40;;
38117;SDS011;23928;47.562;7.508;2023-07-31T12:41:12;4.47;;;2.10;;
38117;SDS011;23928;47.562;7.508;2023-07-31T12:43:39;4.73;;;2.90;;
38117;SDS011;23928;47.562;7.508;2023-07-31T12:46:05;3.80;;;2.20;;
38117;SDS011;23928;47.562;7.508;2023-07-31T12:48:35;5.33;;;2.27;;
38117;SDS011;23928;47.562;7.508;2023-07-31T12:51:02;3.70;;;2.50;;
38117;SDS011;23928;47.562;7.508;2023-07-31T12:53:28;4.07;;;2.37;;
38117;SDS011;23928;47.562;7.508;2023-07-31T12:55:54;2.97;;;1.97;;
38117;SDS011;23928;47.562;7.508;2023-07-31T12:58:20;3.53;;;2.20;;
38117;SDS011;23928;47.562;7.508;2023-07-31T13:00:46;2.77;;;2.17;;
38117;SDS011;23928;47.562;7.508;2023-07-31T13:03:11;6.47;;;2.80;;
38117;SDS011;23928;47.562;7.508;2023-07-31T13:05:37;5.87;;;2.57;;
38117;SDS011;23928;47.562;7.508;2023-07-31T13:08:03;3.33;;;2.17;;
38117;SDS011;23928;47.562;7.508;2023-07-31T13:10:28;4.93;;;2.50;;
38117;SDS011;23928;47.562;7.508;2023-07-31T13:12:55;4.33;;;2.47;;
38117;SDS011;23928;47.562;7.508;2023-07-31T13:15:20;4.27;;;2.50;;
38117;SDS011;23928;47.562;7.508;2023-07-31T13:17:46;5.87;;;2.63;;
38117;SDS011;23928;47.562;7.508;2023-07-31T13:20:12;3.47;;;2.50;;
38117;SDS011;23928;47.562;7.508;2023-07-31T13:22:37;4.23;;;2.17;;
38117;SDS011;23928;47.562;7.508;2023-07-31T13:25:03;3.00;;;2.10;;
38117;SDS011;23928;47.562;7.508;2023-07-31T13:27:30;4.53;;;2.50;;
38117;SDS011;23928;47.562;7.508;2023-07-31T13:29:55;6.23;;;2.83;;
38117;SDS011;23928;47.562;7.508;2023-07-31T13:32:21;4.07;;;2.57;;
38117;SDS011;23928;47.562;7.508;2023-07-31T13:34:47;4.50;;;2.60;;
38117;SDS011;23928;47.562;7.508;2023-07-31T13:37:13;5.93;;;2.57;;
38117;SDS011;23928;47.562;7.508;2023-07-31T13:39:39;3.97;;;2.50;;
38117;SDS011;23928;47.562;7.508;2023-07-31T13:42:05;6.27;;;2.80;;
38117;SDS011;23928;47.562;7.508;2023-07-31T13:44:36;3.53;;;2.20;;
38117;SDS011;23928;47.562;7.508;2023-07-31T13:47:01;5.90;;;2.27;;
38117;SDS011;23928;47.562;7.508;2023-07-31T13:49:27;3.80;;;2.20;;
38117;SDS011;23928;47.562;7.508;2023-07-31T13:51:53;5.70;;;2.63;;
38117;SDS011;23928;47.562;7.508;2023-07-31T13:54:19;3.07;;;2.30;;
38117;SDS011;23928;47.562;7.508;2023-07-31T13:56:45;3.37;;;2.50;;
38117;SDS011;23928;47.562;7.508;2023-07-31T13:59:10;3.70;;;2.40;;
38117;SDS011;23928;47.562;7.508;2023-07-31T14:01:36;3.77;;;2.33;;
38117;SDS011;23928;47.562;7.508;2023-07-31T14:04:02;3.73;;;2.20;;
38117;SDS011;23928;47.562;7.508;2023-07-31T14:06:28;3.87;;;2.40;;
38117;SDS011;23928;47.562;7.508;2023-07-31T14:08:53;3.50;;;2.20;;
38117;SDS011;23928;47.562;7.508;2023-07-31T14:11:20;4.57;;;2.50;;
38117;SDS011;23928;47.562;7.508;2023-07-31T14:13:46;5.77;;;2.90;;
38117;SDS011;23928;47.562;7.508;2023-07-31T14:16:12;4.50;;;2.60;;
38117;SDS011;23928;47.562;7.508;2023-07-31T14:18:38;4.40;;;2.20;;
38117;SDS011;23928;47.562;7.508;2023-07-31T14:21:03;4.90;;;2.30;;
38117;SDS011;23928;47.562;7.508;2023-07-31T14:23:29;6.63;;;2.33;;
38117;SDS011;23928;47.562;7.508;2023-07-31T14:25:54;3.60;;;2.47;;
38117;SDS011;23928;47.562;7.508;2023-07-31T14:28:20;3.33;;;2.23;;
38117;SDS011;23928;47.562;7.508;2023-07-31T14:30:45;3.53;;;2.10;;
38117;SDS011;23928;47.562;7.508;2023-07-31T14:33:11;4.23;;;2.43;;
38117;SDS011;23928;47.562;7.508;2023-07-31T14:35:37;5.23;;;2.53;;
38117;SDS011;23928;47.562;7.508;2023-07-31T14:38:02;5.93;;;2.63;;
38117;SDS011;23928;47.562;7.508;2023-07-31T14:40:28;3.90;;;2.37;;
38117;SDS011;23928;47.562;7.508;2023-07-31T14:42:53;4.93;;;2.63;;
38117;SDS011;23928;47.562;7.508;2023-07-31T14:45:19;3.43;;;2.37;;
38117;SDS011;23928;47.562;7.508;2023-07-31T14:47:45;6.87;;;2.57;;
38117;SDS011;23928;47.562;7.508;2023-07-31T14:50:10;4.23;;;2.23;;
38117;SDS011;23928;47.562;7.508;2023-07-31T14:52:36;4.00;;;2.30;;
38117;SDS011;23928;47.562;7.508;2023-07-31T14:55:02;6.73;;;2.53;;
38117;SDS011;23928;47.562;7.508;2023-07-31T14:57:28;5.53;;;2.50;;
38117;SDS011;23928;47.562;7.508;2023-07-31T14:59:53;5.73;;;2.77;;
38117;SDS011;23928;47.562;7.508;2023-07-31T15:02:19;3.30;;;2.30;;